sensor_id;sensor_type;location;lat;lon;timestamp;P1;durP1;ratioP1;P2;durP2;ratioP2
17985;SDS011;9118;48.122;11.546;2022-10-19T00:00:21;11.43;;;9.93;;
17985;SDS011;9118;48.122;11.546;2022-10-19T00:02:48;13.30;;;9.27;;
17985;SDS011;9118;48.122;11.546;2022-10-19T00:05:15;14.17;;;9.93;;
17985;SDS011;9118;48.122;11.546;2022-10-19T00:07:43;11.63;;;9.40;;
17985;SDS011;9118;48.122;11.546;2022-10-19T00:10:10;13.70;;;10.20;;
17985;SDS011;9118;48.122;11.546;2022-10-19T00:12:37;13.73;;;10.70;;
17985;SDS011;9118;48.122;11.546;2022-10-19T00:15:04;12.57;;;9.73;;
17985;SDS011;9118;48.122;11.546;2022-10-19T00:17:32;16.10;;;10.33;;
17985;SDS011;9118;48.122;11.546;2022-10-19T00:20:00;14.10;;;10.30;;
17985;SDS011;9118;48.122;11.546;2022-10-19T00:22:27;12.70;;;10.27;;
17985;SDS011;9118;48.122;11.546;2022-10-19T00:24:56;12.97;;;9.87;;
17985;SDS011;9118;48.122;11.546;2022-10-19T00:27:23;14.10;;;10.30;;
17985;SDS011;9118;48.122;11.546;2022-10-19T00:29:50;12.87;;;10.67;;
17985;SDS011;9118;48.122;11.546;2022-10-19T00:32:17;15.40;;;10.40;;
17985;SDS011;9118;48.122;11.546;2022-10-19T00:34:44;11.53;;;10.30;;
17985;SDS011;9118;48.122;11.546;2022-10-19T00:37:12;11.90;;;10.20;;
17985;SDS011;9118;48.122;11.546;2022-10-19T00:39:38;13.97;;;10.37;;
17985;SDS011;9118;48.122;11.546;2022-10-19T00:42:09;12.43;;;11.10;;
17985;SDS011;9118;48.122;11.546;2022-10-19T00:47:27;13.50;;;11.57;;
17985;SDS011;9118;48.122;11.546;2022-10-19T00:49:54;13.27;;;10.60;;
17985;SDS011;9118;48.122;11.546;2022-10-19T00:52:23;12.30;;;10.80;;
17985;SDS011;9118;48.122;11.546;2022-10-19T00:54:51;12.83;;;10.50;;
17985;SDS011;9118;48.122;11.546;2022-10-19T00:57:22;13.13;;;11.23;;
17985;SDS011;9118;48.122;11.546;2022-10-19T00:59:52;12.80;;;11.10;;
17985;SDS011;9118;48.122;11.546;2022-10-19T01:02:20;14.23;;;10.50;;
17985;SDS011;9118;48.122;11.546;2022-10-19T01:04:48;15.10;;;12.07;;
17985;SDS011;9118;48.122;11.546;2022-10-19T01:07:17;17.07;;;11.07;;
17985;SDS011;9118;48.122;11.546;2022-10-19T01:09:44;15.17;;;11.40;;
17985;SDS011;9118;48.122;11.546;2022-10-19T01:12:15;14.03;;;10.47;;
17985;SDS011;9118;48.122;11.546;2022-10-19T01:14:54;13.93;;;11.40;;
17985;SDS011;9118;48.122;11.546;2022-10-19T01:17:33;13.97;;;11.07;;
17985;SDS011;9118;48.122;11.546;2022-10-19T01:20:10;15.67;;;11.20;;
17985;SDS011;9118;48.122;11.546;2022-10-19T01:22:59;14.47;;;11.33;;
17985;SDS011;9118;48.122;11.546;2022-10-19T01:25:46;16.57;;;11.43;;
17985;SDS011;9118;48.122;11.546;2022-10-19T01:28:26;13.03;;;11.43;;
17985;SDS011;9118;48.122;11.546;2022-10-19T01:31:06;16.40;;;11.03;;
17985;SDS011;9118;48.122;11.546;2022-10-19T01:33:44;15.07;;;10.97;;
17985;SDS011;9118;48.122;11.546;2022-10-19T01:36:17;14.20;;;11.47;;
17985;SDS011;9118;48.122;11.546;2022-10-19T01:38:50;12.67;;;11.10;;
17985;SDS011;9118;48.122;11.546;2022-10-19T01:41:26;15.47;;;11.40;;
17985;SDS011;9118;48.122;11.546;2022-10-19T01:44:00;14.50;;;11.90;;
17985;SDS011;9118;48.122;11.546;2022-10-19T01:46:36;13.23;;;11.43;;
17985;SDS011;9118;48.122;11.546;2022-10-19T01:49:07;15.87;;;11.80;;
17985;SDS011;9118;48.122;11.546;2022-10-19T01:51:39;14.27;;;11.23;;
17985;SDS011;9118;48.122;11.546;2022-10-19T01:54:10;16.83;;;11.90;;
17985;SDS011;9118;48.122;11.546;2022-10-19T01:56:40;17.43;;;12.23;;
17985;SDS011;9118;48.122;11.546;2022-10-19T01:59:09;16.27;;;12.60;;
17985;SDS011;9118;48.122;11.546;2022-10-19T02:01:39;14.00;;;11.90;;
17985;SDS011;9118;48.122;11.546;2022-10-19T02:04:10;15.63;;;12.53;;
17985;SDS011;9118;48.122;11.546;2022-10-19T02:06:39;17.40;;;13.50;;
17985;SDS011;9118;48.122;11.546;2022-10-19T02:09:06;21.07;;;13.80;;
17985;SDS011;9118;48.122;11.546;2022-10-19T02:11:34;24.07;;;14.60;;
17985;SDS011;9118;48.122;11.546;2022-10-19T02:14:04;20.97;;;14.40;;
17985;SDS011;9118;48.122;11.546;2022-10-19T02:16:35;17.77;;;15.00;;
17985;SDS011;9118;48.122;11.546;2022-10-19T02:19:06;19.77;;;14.87;;
17985;SDS011;9118;48.122;11.546;2022-10-19T02:21:36;21.57;;;15.67;;
17985;SDS011;9118;48.122;11.546;2022-10-19T02:24:03;22.53;;;15.70;;
17985;SDS011;9118;48.122;11.546;2022-10-19T02:26:30;20.60;;;16.10;;
17985;SDS011;9118;48.122;11.546;2022-10-19T02:28:58;19.47;;;15.27;;
17985;SDS011;9118;48.122;11.546;2022-10-19T02:31:25;19.60;;;15.87;;
17985;SDS011;9118;48.122;11.546;2022-10-19T02:33:53;22.00;;;16.50;;
17985;SDS011;9118;48.122;11.546;2022-10-19T02:36:20;21.57;;;15.70;;
17985;SDS011;9118;48.122;11.546;2022-10-19T02:38:48;21.10;;;16.70;;
17985;SDS011;9118;48.122;11.546;2022-10-19T02:41:16;21.17;;;15.87;;
17985;SDS011;9118;48.122;11.546;2022-10-19T02:43:47;20.87;;;16.50;;
17985;SDS011;9118;48.122;11.546;2022-10-19T02:46:17;23.17;;;16.90;;
17985;SDS011;9118;48.122;11.546;2022-10-19T02:48:48;21.13;;;16.80;;
17985;SDS011;9118;48.122;11.546;2022-10-19T02:51:27;22.47;;;16.20;;
17985;SDS011;9118;48.122;11.546;2022-10-19T02:53:55;21.03;;;15.93;;
17985;SDS011;9118;48.122;11.546;2022-10-19T02:56:22;23.57;;;16.93;;
17985;SDS011;9118;48.122;11.546;2022-10-19T02:58:49;25.13;;;17.30;;
17985;SDS011;9118;48.122;11.546;2022-10-19T03:01:17;21.13;;;17.40;;
17985;SDS011;9118;48.122;11.546;2022-10-19T03:03:43;21.40;;;16.80;;
17985;SDS011;9118;48.122;11.546;2022-10-19T03:06:11;24.17;;;17.13;;
17985;SDS011;9118;48.122;11.546;2022-10-19T03:08:39;22.50;;;16.83;;
17985;SDS011;9118;48.122;11.546;2022-10-19T03:11:06;23.23;;;17.03;;
17985;SDS011;9118;48.122;11.546;2022-10-19T03:13:33;24.60;;;16.93;;
17985;SDS011;9118;48.122;11.546;2022-10-19T03:16:04;22.57;;;17.10;;
17985;SDS011;9118;48.122;11.546;2022-10-19T03:18:32;21.57;;;16.93;;
17985;SDS011;9118;48.122;11.546;2022-10-19T03:21:03;24.17;;;17.00;;
17985;SDS011;9118;48.122;11.546;2022-10-19T03:23:31;23.80;;;18.13;;
17985;SDS011;9118;48.122;11.546;2022-10-19T03:26:00;22.27;;;17.07;;
17985;SDS011;9118;48.122;11.546;2022-10-19T03:28:27;29.90;;;18.47;;
17985;SDS011;9118;48.122;11.546;2022-10-19T03:30:54;26.00;;;18.67;;
17985;SDS011;9118;48.122;11.546;2022-10-19T03:33:22;25.63;;;19.23;;
17985;SDS011;9118;48.122;11.546;2022-10-19T03:35:50;26.87;;;19.80;;
17985;SDS011;9118;48.122;11.546;2022-10-19T03:38:37;29.90;;;21.27;;
17985;SDS011;9118;48.122;11.546;2022-10-19T03:41:05;29.60;;;21.30;;
17985;SDS011;9118;48.122;11.546;2022-10-19T03:43:33;27.77;;;19.83;;
17985;SDS011;9118;48.122;11.546;2022-10-19T03:46:00;27.87;;;19.40;;
17985;SDS011;9118;48.122;11.546;2022-10-19T03:48:27;27.23;;;19.53;;
17985;SDS011;9118;48.122;11.546;2022-10-19T03:50:57;25.37;;;18.03;;
17985;SDS011;9118;48.122;11.546;2022-10-19T03:53:24;27.00;;;19.23;;
17985;SDS011;9118;48.122;11.546;2022-10-19T03:55:52;24.13;;;18.80;;
17985;SDS011;9118;48.122;11.546;2022-10-19T03:58:26;26.60;;;18.97;;
17985;SDS011;9118;48.122;11.546;2022-10-19T04:00:53;23.73;;;18.37;;
17985;SDS011;9118;48.122;11.546;2022-10-19T04:03:20;22.67;;;17.40;;
17985;SDS011;9118;48.122;11.546;2022-10-19T04:05:47;22.60;;;17.80;;
17985;SDS011;9118;48.122;11.546;2022-10-19T04:08:14;22.73;;;17.17;;
17985;SDS011;9118;48.122;11.546;2022-10-19T04:10:41;22.40;;;16.40;;
17985;SDS011;9118;48.122;11.546;2022-10-19T04:13:08;23.70;;;17.83;;
17985;SDS011;9118;48.122;11.546;2022-10-19T04:15:36;21.57;;;17.13;;
17985;SDS011;9118;48.122;11.546;2022-10-19T04:18:03;23.03;;;16.90;;
17985;SDS011;9118;48.122;11.546;2022-10-19T04:20:33;21.73;;;16.23;;
17985;SDS011;9118;48.122;11.546;2022-10-19T04:23:00;25.63;;;17.60;;
17985;SDS011;9118;48.122;11.546;2022-10-19T04:25:27;21.77;;;16.73;;
17985;SDS011;9118;48.122;11.546;2022-10-19T04:27:54;21.57;;;16.83;;
17985;SDS011;9118;48.122;11.546;2022-10-19T04:30:20;20.23;;;16.27;;
17985;SDS011;9118;48.122;11.546;2022-10-19T04:32:49;24.03;;;17.30;;
17985;SDS011;9118;48.122;11.546;2022-10-19T04:35:16;20.83;;;16.73;;
17985;SDS011;9118;48.122;11.546;2022-10-19T04:37:43;20.30;;;15.20;;
17985;SDS011;9118;48.122;11.546;2022-10-19T04:40:10;23.70;;;16.50;;
17985;SDS011;9118;48.122;11.546;2022-10-19T04:42:37;20.77;;;15.77;;
17985;SDS011;9118;48.122;11.546;2022-10-19T04:45:04;22.73;;;17.00;;
17985;SDS011;9118;48.122;11.546;2022-10-19T04:47:32;21.77;;;16.17;;
17985;SDS011;9118;48.122;11.546;2022-10-19T04:50:00;23.00;;;17.97;;
17985;SDS011;9118;48.122;11.546;2022-10-19T04:52:27;24.50;;;18.13;;
17985;SDS011;9118;48.122;11.546;2022-10-19T04:54:54;26.20;;;17.73;;
17985;SDS011;9118;48.122;11.546;2022-10-19T04:57:21;28.80;;;19.67;;
17985;SDS011;9118;48.122;11.546;2022-10-19T04:59:48;26.80;;;19.83;;
17985;SDS011;9118;48.122;11.546;2022-10-19T05:02:14;24.60;;;18.37;;
17985;SDS011;9118;48.122;11.546;2022-10-19T05:04:41;27.47;;;19.27;;
17985;SDS011;9118;48.122;11.546;2022-10-19T05:07:10;24.73;;;19.07;;
17985;SDS011;9118;48.122;11.546;2022-10-19T05:09:37;29.27;;;18.70;;
17985;SDS011;9118;48.122;11.546;2022-10-19T05:12:04;25.70;;;18.77;;
17985;SDS011;9118;48.122;11.546;2022-10-19T05:14:32;25.40;;;17.80;;
17985;SDS011;9118;48.122;11.546;2022-10-19T05:16:59;20.57;;;15.73;;
17985;SDS011;9118;48.122;11.546;2022-10-19T05:19:26;36.67;;;26.03;;
17985;SDS011;9118;48.122;11.546;2022-10-19T05:21:53;21.63;;;16.20;;
17985;SDS011;9118;48.122;11.546;2022-10-19T05:24:21;22.17;;;16.20;;
17985;SDS011;9118;48.122;11.546;2022-10-19T05:26:48;21.53;;;16.40;;
17985;SDS011;9118;48.122;11.546;2022-10-19T05:29:15;21.70;;;16.77;;
17985;SDS011;9118;48.122;11.546;2022-10-19T05:31:42;22.30;;;16.73;;
17985;SDS011;9118;48.122;11.546;2022-10-19T05:34:09;26.17;;;17.30;;
17985;SDS011;9118;48.122;11.546;2022-10-19T05:36:36;23.13;;;17.90;;
17985;SDS011;9118;48.122;11.546;2022-10-19T05:39:05;24.87;;;18.67;;
17985;SDS011;9118;48.122;11.546;2022-10-19T05:41:36;27.33;;;18.73;;
17985;SDS011;9118;48.122;11.546;2022-10-19T05:44:03;24.83;;;17.33;;
17985;SDS011;9118;48.122;11.546;2022-10-19T05:46:31;24.27;;;18.00;;
17985;SDS011;9118;48.122;11.546;2022-10-19T05:48:59;27.17;;;17.97;;
17985;SDS011;9118;48.122;11.546;2022-10-19T05:51:26;28.43;;;19.87;;
17985;SDS011;9118;48.122;11.546;2022-10-19T05:53:54;29.87;;;19.60;;
17985;SDS011;9118;48.122;11.546;2022-10-19T05:56:22;28.57;;;19.77;;
17985;SDS011;9118;48.122;11.546;2022-10-19T05:58:52;26.80;;;20.00;;
17985;SDS011;9118;48.122;11.546;2022-10-19T06:01:20;31.00;;;20.43;;
17985;SDS011;9118;48.122;11.546;2022-10-19T06:03:49;32.87;;;22.57;;
17985;SDS011;9118;48.122;11.546;2022-10-19T06:06:18;33.00;;;22.13;;
17985;SDS011;9118;48.122;11.546;2022-10-19T06:08:45;37.77;;;20.70;;
17985;SDS011;9118;48.122;11.546;2022-10-19T06:11:13;33.57;;;21.87;;
17985;SDS011;9118;48.122;11.546;2022-10-19T06:16:55;33.33;;;20.47;;
17985;SDS011;9118;48.122;11.546;2022-10-19T06:19:43;31.23;;;21.10;;
17985;SDS011;9118;48.122;11.546;2022-10-19T06:22:10;34.47;;;22.30;;
17985;SDS011;9118;48.122;11.546;2022-10-19T06:24:37;31.43;;;20.43;;
17985;SDS011;9118;48.122;11.546;2022-10-19T06:27:04;31.43;;;20.73;;
17985;SDS011;9118;48.122;11.546;2022-10-19T06:29:33;34.40;;;21.97;;
17985;SDS011;9118;48.122;11.546;2022-10-19T06:32:00;31.73;;;20.70;;
17985;SDS011;9118;48.122;11.546;2022-10-19T06:34:27;33.83;;;21.03;;
17985;SDS011;9118;48.122;11.546;2022-10-19T06:36:54;39.07;;;23.70;;
17985;SDS011;9118;48.122;11.546;2022-10-19T06:39:21;37.37;;;21.43;;
17985;SDS011;9118;48.122;11.546;2022-10-19T06:41:48;31.63;;;20.80;;
17985;SDS011;9118;48.122;11.546;2022-10-19T06:44:15;32.97;;;21.23;;
17985;SDS011;9118;48.122;11.546;2022-10-19T06:46:44;32.13;;;20.90;;
17985;SDS011;9118;48.122;11.546;2022-10-19T06:49:11;32.50;;;21.13;;
17985;SDS011;9118;48.122;11.546;2022-10-19T06:51:39;32.13;;;20.47;;
17985;SDS011;9118;48.122;11.546;2022-10-19T06:54:06;35.40;;;21.80;;
17985;SDS011;9118;48.122;11.546;2022-10-19T06:56:33;34.30;;;20.23;;
17985;SDS011;9118;48.122;11.546;2022-10-19T06:59:01;32.50;;;21.17;;
17985;SDS011;9118;48.122;11.546;2022-10-19T07:01:28;30.60;;;20.97;;
17985;SDS011;9118;48.122;11.546;2022-10-19T07:03:57;30.60;;;21.83;;
17985;SDS011;9118;48.122;11.546;2022-10-19T07:06:25;27.43;;;19.53;;
17985;SDS011;9118;48.122;11.546;2022-10-19T07:08:53;28.13;;;20.20;;
17985;SDS011;9118;48.122;11.546;2022-10-19T07:11:20;29.00;;;20.33;;
17985;SDS011;9118;48.122;11.546;2022-10-19T07:13:47;30.50;;;22.57;;
17985;SDS011;9118;48.122;11.546;2022-10-19T07:16:15;27.57;;;21.37;;
17985;SDS011;9118;48.122;11.546;2022-10-19T07:18:43;27.03;;;20.87;;
17985;SDS011;9118;48.122;11.546;2022-10-19T07:21:12;27.90;;;20.50;;
17985;SDS011;9118;48.122;11.546;2022-10-19T07:23:41;26.87;;;18.70;;
17985;SDS011;9118;48.122;11.546;2022-10-19T07:26:10;28.97;;;20.90;;
17985;SDS011;9118;48.122;11.546;2022-10-19T07:28:39;28.73;;;20.43;;
17985;SDS011;9118;48.122;11.546;2022-10-19T07:31:07;27.20;;;20.67;;
17985;SDS011;9118;48.122;11.546;2022-10-19T07:33:35;27.73;;;19.63;;
17985;SDS011;9118;48.122;11.546;2022-10-19T07:36:04;27.77;;;20.97;;
17985;SDS011;9118;48.122;11.546;2022-10-19T07:38:33;29.77;;;20.10;;
17985;SDS011;9118;48.122;11.546;2022-10-19T07:41:02;27.30;;;20.13;;
17985;SDS011;9118;48.122;11.546;2022-10-19T07:43:30;36.27;;;22.33;;
17985;SDS011;9118;48.122;11.546;2022-10-19T07:45:58;30.37;;;20.93;;
17985;SDS011;9118;48.122;11.546;2022-10-19T07:48:26;33.00;;;22.33;;
17985;SDS011;9118;48.122;11.546;2022-10-19T07:50:53;30.77;;;21.07;;
17985;SDS011;9118;48.122;11.546;2022-10-19T07:53:20;28.60;;;20.50;;
17985;SDS011;9118;48.122;11.546;2022-10-19T07:55:48;33.80;;;22.60;;
17985;SDS011;9118;48.122;11.546;2022-10-19T07:58:15;33.53;;;22.90;;
17985;SDS011;9118;48.122;11.546;2022-10-19T08:00:42;30.67;;;20.93;;
17985;SDS011;9118;48.122;11.546;2022-10-19T08:03:09;32.50;;;22.13;;
17985;SDS011;9118;48.122;11.546;2022-10-19T08:05:37;31.37;;;21.63;;
17985;SDS011;9118;48.122;11.546;2022-10-19T08:08:04;31.00;;;21.07;;
17985;SDS011;9118;48.122;11.546;2022-10-19T08:10:31;34.43;;;22.00;;
17985;SDS011;9118;48.122;11.546;2022-10-19T08:12:59;30.77;;;22.53;;
17985;SDS011;9118;48.122;11.546;2022-10-19T08:15:27;32.40;;;22.47;;
17985;SDS011;9118;48.122;11.546;2022-10-19T08:17:55;34.10;;;22.30;;
17985;SDS011;9118;48.122;11.546;2022-10-19T08:20:22;26.60;;;20.90;;
17985;SDS011;9118;48.122;11.546;2022-10-19T08:22:49;35.27;;;22.73;;
17985;SDS011;9118;48.122;11.546;2022-10-19T08:25:16;32.53;;;22.13;;
17985;SDS011;9118;48.122;11.546;2022-10-19T08:27:44;34.90;;;21.00;;
17985;SDS011;9118;48.122;11.546;2022-10-19T08:30:12;34.00;;;22.13;;
17985;SDS011;9118;48.122;11.546;2022-10-19T08:32:39;38.60;;;23.60;;
17985;SDS011;9118;48.122;11.546;2022-10-19T08:35:06;32.37;;;22.00;;
17985;SDS011;9118;48.122;11.546;2022-10-19T08:37:33;29.67;;;20.43;;
17985;SDS011;9118;48.122;11.546;2022-10-19T08:40:00;32.13;;;20.83;;
17985;SDS011;9118;48.122;11.546;2022-10-19T08:42:28;33.67;;;21.60;;
17985;SDS011;9118;48.122;11.546;2022-10-19T08:48:11;34.47;;;20.80;;
17985;SDS011;9118;48.122;11.546;2022-10-19T08:50:49;32.17;;;20.97;;
17985;SDS011;9118;48.122;11.546;2022-10-19T08:53:17;37.40;;;21.90;;
17985;SDS011;9118;48.122;11.546;2022-10-19T08:55:52;31.00;;;21.57;;
17985;SDS011;9118;48.122;11.546;2022-10-19T08:58:35;36.53;;;22.20;;
17985;SDS011;9118;48.122;11.546;2022-10-19T09:01:10;32.27;;;21.23;;
17985;SDS011;9118;48.122;11.546;2022-10-19T09:03:45;33.73;;;21.90;;
17985;SDS011;9118;48.122;11.546;2022-10-19T09:06:18;35.30;;;24.00;;
17985;SDS011;9118;48.122;11.546;2022-10-19T09:08:49;33.47;;;22.73;;
17985;SDS011;9118;48.122;11.546;2022-10-19T09:11:19;33.23;;;22.47;;
17985;SDS011;9118;48.122;11.546;2022-10-19T09:13:50;33.77;;;22.27;;
17985;SDS011;9118;48.122;11.546;2022-10-19T09:16:25;36.83;;;22.87;;
17985;SDS011;9118;48.122;11.546;2022-10-19T09:18:52;34.70;;;22.67;;
17985;SDS011;9118;48.122;11.546;2022-10-19T09:21:20;35.70;;;22.13;;
17985;SDS011;9118;48.122;11.546;2022-10-19T09:23:50;35.20;;;21.67;;
17985;SDS011;9118;48.122;11.546;2022-10-19T09:26:23;36.97;;;22.13;;
17985;SDS011;9118;48.122;11.546;2022-10-19T09:28:53;39.43;;;22.77;;
17985;SDS011;9118;48.122;11.546;2022-10-19T09:31:26;37.80;;;24.07;;
17985;SDS011;9118;48.122;11.546;2022-10-19T09:33:56;36.73;;;23.77;;
17985;SDS011;9118;48.122;11.546;2022-10-19T09:36:28;35.50;;;23.17;;
17985;SDS011;9118;48.122;11.546;2022-10-19T09:39:02;34.03;;;22.07;;
17985;SDS011;9118;48.122;11.546;2022-10-19T09:41:29;36.60;;;23.90;;
17985;SDS011;9118;48.122;11.546;2022-10-19T09:43:57;32.33;;;21.90;;
17985;SDS011;9118;48.122;11.546;2022-10-19T09:46:41;33.27;;;21.20;;
17985;SDS011;9118;48.122;11.546;2022-10-19T09:49:16;36.33;;;21.67;;
17985;SDS011;9118;48.122;11.546;2022-10-19T09:51:44;32.70;;;20.47;;
17985;SDS011;9118;48.122;11.546;2022-10-19T09:57:03;26.03;;;18.53;;
17985;SDS011;9118;48.122;11.546;2022-10-19T09:59:45;31.50;;;19.50;;
17985;SDS011;9118;48.122;11.546;2022-10-19T10:02:35;27.83;;;18.90;;
17985;SDS011;9118;48.122;11.546;2022-10-19T10:05:04;25.83;;;18.87;;
17985;SDS011;9118;48.122;11.546;2022-10-19T10:07:33;24.80;;;17.30;;
17985;SDS011;9118;48.122;11.546;2022-10-19T10:10:07;26.83;;;18.27;;
17985;SDS011;9118;48.122;11.546;2022-10-19T10:12:36;31.37;;;19.30;;
17985;SDS011;9118;48.122;11.546;2022-10-19T10:15:06;25.03;;;17.57;;
17985;SDS011;9118;48.122;11.546;2022-10-19T10:17:35;26.47;;;17.80;;
17985;SDS011;9118;48.122;11.546;2022-10-19T10:20:16;22.90;;;16.87;;
17985;SDS011;9118;48.122;11.546;2022-10-19T10:22:51;22.23;;;15.93;;
17985;SDS011;9118;48.122;11.546;2022-10-19T10:25:23;22.07;;;15.87;;
17985;SDS011;9118;48.122;11.546;2022-10-19T10:27:53;29.03;;;17.07;;
17985;SDS011;9118;48.122;11.546;2022-10-19T10:30:23;22.33;;;16.70;;
17985;SDS011;9118;48.122;11.546;2022-10-19T10:32:56;21.93;;;15.77;;
17985;SDS011;9118;48.122;11.546;2022-10-19T10:35:26;19.90;;;15.10;;
17985;SDS011;9118;48.122;11.546;2022-10-19T10:38:07;20.10;;;15.80;;
17985;SDS011;9118;48.122;11.546;2022-10-19T10:40:47;21.80;;;14.90;;
17985;SDS011;9118;48.122;11.546;2022-10-19T10:43:26;24.23;;;16.70;;
17985;SDS011;9118;48.122;11.546;2022-10-19T10:45:58;23.20;;;16.40;;
17985;SDS011;9118;48.122;11.546;2022-10-19T10:48:33;22.63;;;16.60;;
17985;SDS011;9118;48.122;11.546;2022-10-19T10:51:06;21.93;;;16.97;;
17985;SDS011;9118;48.122;11.546;2022-10-19T10:53:44;22.47;;;17.03;;
17985;SDS011;9118;48.122;11.546;2022-10-19T10:56:22;23.57;;;16.97;;
17985;SDS011;9118;48.122;11.546;2022-10-19T10:58:53;27.67;;;17.87;;
17985;SDS011;9118;48.122;11.546;2022-10-19T11:01:25;26.93;;;17.67;;
17985;SDS011;9118;48.122;11.546;2022-10-19T11:04:00;35.87;;;25.13;;
17985;SDS011;9118;48.122;11.546;2022-10-19T11:06:31;30.17;;;16.73;;
17985;SDS011;9118;48.122;11.546;2022-10-19T11:09:06;22.83;;;15.87;;
17985;SDS011;9118;48.122;11.546;2022-10-19T11:11:40;22.73;;;17.00;;
17985;SDS011;9118;48.122;11.546;2022-10-19T11:14:24;22.30;;;15.70;;
17985;SDS011;9118;48.122;11.546;2022-10-19T11:16:58;28.47;;;16.63;;
17985;SDS011;9118;48.122;11.546;2022-10-19T11:19:35;23.60;;;15.93;;
17985;SDS011;9118;48.122;11.546;2022-10-19T11:22:09;23.37;;;16.57;;
17985;SDS011;9118;48.122;11.546;2022-10-19T11:24:47;24.20;;;16.77;;
17985;SDS011;9118;48.122;11.546;2022-10-19T11:27:28;23.53;;;16.27;;
17985;SDS011;9118;48.122;11.546;2022-10-19T11:30:08;21.93;;;14.80;;
17985;SDS011;9118;48.122;11.546;2022-10-19T11:32:41;21.67;;;14.30;;
17985;SDS011;9118;48.122;11.546;2022-10-19T11:35:19;21.33;;;14.47;;
17985;SDS011;9118;48.122;11.546;2022-10-19T11:38:02;23.40;;;14.30;;
17985;SDS011;9118;48.122;11.546;2022-10-19T11:40:47;17.53;;;11.97;;
17985;SDS011;9118;48.122;11.546;2022-10-19T11:43:21;16.10;;;11.80;;
17985;SDS011;9118;48.122;11.546;2022-10-19T11:46:07;18.77;;;12.27;;
17985;SDS011;9118;48.122;11.546;2022-10-19T11:48:45;17.43;;;12.73;;
17985;SDS011;9118;48.122;11.546;2022-10-19T11:51:39;18.63;;;12.43;;
17985;SDS011;9118;48.122;11.546;2022-10-19T11:54:17;17.10;;;11.97;;
17985;SDS011;9118;48.122;11.546;2022-10-19T11:56:58;16.53;;;12.03;;
17985;SDS011;9118;48.122;11.546;2022-10-19T11:59:33;19.77;;;12.80;;
17985;SDS011;9118;48.122;11.546;2022-10-19T12:02:23;18.17;;;12.03;;
17985;SDS011;9118;48.122;11.546;2022-10-19T12:05:10;17.90;;;12.80;;
17985;SDS011;9118;48.122;11.546;2022-10-19T12:07:49;18.10;;;12.93;;
17985;SDS011;9118;48.122;11.546;2022-10-19T12:10:30;18.13;;;11.73;;
17985;SDS011;9118;48.122;11.546;2022-10-19T12:13:03;20.37;;;11.80;;
17985;SDS011;9118;48.122;11.546;2022-10-19T12:15:34;14.60;;;10.27;;
17985;SDS011;9118;48.122;11.546;2022-10-19T12:18:09;12.20;;;10.57;;
17985;SDS011;9118;48.122;11.546;2022-10-19T12:20:42;16.80;;;14.80;;
17985;SDS011;9118;48.122;11.546;2022-10-19T12:23:22;12.30;;;9.90;;
17985;SDS011;9118;48.122;11.546;2022-10-19T12:25:52;11.43;;;9.27;;
17985;SDS011;9118;48.122;11.546;2022-10-19T12:28:21;15.50;;;8.50;;
17985;SDS011;9118;48.122;11.546;2022-10-19T12:30:53;9.53;;;8.43;;
17985;SDS011;9118;48.122;11.546;2022-10-19T12:33:21;10.10;;;8.33;;
17985;SDS011;9118;48.122;11.546;2022-10-19T12:35:54;11.43;;;7.90;;
17985;SDS011;9118;48.122;11.546;2022-10-19T12:38:34;11.63;;;9.67;;
17985;SDS011;9118;48.122;11.546;2022-10-19T12:41:09;13.50;;;11.37;;
17985;SDS011;9118;48.122;11.546;2022-10-19T12:43:51;10.50;;;8.30;;
17985;SDS011;9118;48.122;11.546;2022-10-19T12:46:26;12.47;;;8.40;;
17985;SDS011;9118;48.122;11.546;2022-10-19T12:52:07;9.47;;;7.87;;
17985;SDS011;9118;48.122;11.546;2022-10-19T12:54:36;12.00;;;8.10;;
17985;SDS011;9118;48.122;11.546;2022-10-19T12:57:18;8.63;;;7.77;;
17985;SDS011;9118;48.122;11.546;2022-10-19T13:02:44;8.80;;;7.50;;
17985;SDS011;9118;48.122;11.546;2022-10-19T13:05:18;9.20;;;7.90;;
17985;SDS011;9118;48.122;11.546;2022-10-19T13:07:46;9.17;;;8.27;;
17985;SDS011;9118;48.122;11.546;2022-10-19T13:10:19;10.23;;;8.47;;
17985;SDS011;9118;48.122;11.546;2022-10-19T13:12:48;10.57;;;8.90;;
17985;SDS011;9118;48.122;11.546;2022-10-19T13:21:48;15.00;;;9.77;;
17985;SDS011;9118;48.122;11.546;2022-10-19T13:24:36;14.67;;;10.60;;
17985;SDS011;9118;48.122;11.546;2022-10-19T13:27:27;15.87;;;11.30;;
17985;SDS011;9118;48.122;11.546;2022-10-19T13:30:04;13.53;;;10.70;;
17985;SDS011;9118;48.122;11.546;2022-10-19T13:32:53;17.53;;;13.10;;
17985;SDS011;9118;48.122;11.546;2022-10-19T13:35:25;11.73;;;9.87;;
17985;SDS011;9118;48.122;11.546;2022-10-19T13:38:10;12.33;;;9.23;;
17985;SDS011;9118;48.122;11.546;2022-10-19T13:40:58;12.80;;;9.63;;
17985;SDS011;9118;48.122;11.546;2022-10-19T13:43:34;10.07;;;8.10;;
17985;SDS011;9118;48.122;11.546;2022-10-19T13:46:07;9.53;;;7.80;;
17985;SDS011;9118;48.122;11.546;2022-10-19T13:48:41;11.87;;;7.47;;
17985;SDS011;9118;48.122;11.546;2022-10-19T13:51:39;11.90;;;8.80;;
17985;SDS011;9118;48.122;11.546;2022-10-19T13:54:44;11.57;;;8.33;;
17985;SDS011;9118;48.122;11.546;2022-10-19T13:57:45;10.40;;;7.87;;
17985;SDS011;9118;48.122;11.546;2022-10-19T14:00:27;10.37;;;8.60;;
17985;SDS011;9118;48.122;11.546;2022-10-19T14:03:06;14.93;;;9.27;;
17985;SDS011;9118;48.122;11.546;2022-10-19T14:06:06;10.60;;;8.90;;
17985;SDS011;9118;48.122;11.546;2022-10-19T14:08:48;10.03;;;8.00;;
17985;SDS011;9118;48.122;11.546;2022-10-19T14:11:39;10.60;;;8.13;;
17985;SDS011;9118;48.122;11.546;2022-10-19T14:14:18;9.30;;;7.30;;
17985;SDS011;9118;48.122;11.546;2022-10-19T14:16:52;8.20;;;7.17;;
17985;SDS011;9118;48.122;11.546;2022-10-19T14:19:22;10.30;;;8.07;;
17985;SDS011;9118;48.122;11.546;2022-10-19T14:21:52;10.73;;;7.33;;
17985;SDS011;9118;48.122;11.546;2022-10-19T14:24:23;9.20;;;7.20;;
17985;SDS011;9118;48.122;11.546;2022-10-19T14:26:54;10.30;;;7.13;;
17985;SDS011;9118;48.122;11.546;2022-10-19T14:29:21;10.47;;;8.03;;
17985;SDS011;9118;48.122;11.546;2022-10-19T14:31:49;8.73;;;6.57;;
17985;SDS011;9118;48.122;11.546;2022-10-19T14:34:21;8.07;;;6.93;;
17985;SDS011;9118;48.122;11.546;2022-10-19T14:36:48;7.27;;;6.30;;
17985;SDS011;9118;48.122;11.546;2022-10-19T14:39:22;10.00;;;7.77;;
17985;SDS011;9118;48.122;11.546;2022-10-19T14:41:55;13.37;;;8.40;;
17985;SDS011;9118;48.122;11.546;2022-10-19T14:44:31;10.03;;;7.53;;
17985;SDS011;9118;48.122;11.546;2022-10-19T14:47:25;7.10;;;6.40;;
17985;SDS011;9118;48.122;11.546;2022-10-19T14:49:56;8.33;;;6.73;;
17985;SDS011;9118;48.122;11.546;2022-10-19T14:52:24;8.60;;;6.83;;
17985;SDS011;9118;48.122;11.546;2022-10-19T14:54:53;7.50;;;6.33;;
17985;SDS011;9118;48.122;11.546;2022-10-19T14:57:22;6.90;;;6.20;;
17985;SDS011;9118;48.122;11.546;2022-10-19T14:59:52;7.50;;;6.53;;
17985;SDS011;9118;48.122;11.546;2022-10-19T15:02:23;8.43;;;7.50;;
17985;SDS011;9118;48.122;11.546;2022-10-19T15:04:53;9.17;;;7.40;;
17985;SDS011;9118;48.122;11.546;2022-10-19T15:07:28;9.43;;;7.27;;
17985;SDS011;9118;48.122;11.546;2022-10-19T15:10:01;9.27;;;7.67;;
17985;SDS011;9118;48.122;11.546;2022-10-19T15:12:32;11.07;;;7.77;;